createdAt,value
2023-04-26T00:02:21.026Z,4.99
2023-04-26T00:04:55.827Z,4.90
2023-04-26T00:07:24.862Z,4.99
2023-04-26T00:09:53.318Z,5.06
2023-04-26T00:12:22.052Z,4.97
2023-04-26T00:14:50.251Z,4.94
2023-04-26T00:17:18.140Z,4.98
2023-04-26T00:19:46.964Z,4.89
2023-04-26T00:22:16.362Z,4.84
2023-04-26T00:24:44.413Z,4.92
2023-04-26T00:27:12.710Z,4.90
2023-04-26T00:29:41.239Z,4.94
2023-04-26T00:32:09.157Z,4.90
2023-04-26T00:34:38.438Z,4.98
2023-04-26T00:37:06.769Z,4.97
2023-04-26T00:39:35.996Z,4.99
2023-04-26T00:42:03.916Z,5.13
2023-04-26T00:44:31.788Z,5.08
2023-04-26T00:46:59.738Z,4.95
2023-04-26T00:49:27.721Z,5.09
2023-04-26T00:51:56.093Z,5.23
2023-04-26T00:54:23.945Z,5.08
2023-04-26T00:56:53.361Z,5.00
2023-04-26T00:59:21.578Z,4.90
2023-04-26T01:01:49.669Z,4.98
2023-04-26T01:04:18.512Z,5.20
2023-04-26T01:06:46.994Z,5.05
2023-04-26T01:09:15.639Z,5.08
2023-04-26T01:11:45.300Z,5.43
2023-04-26T01:14:16.101Z,5.26
2023-04-26T01:16:46.991Z,5.40
2023-04-26T01:19:15.367Z,5.27
2023-04-26T01:21:43.947Z,4.79
2023-04-26T01:24:14.721Z,4.87
2023-04-26T01:26:45.797Z,4.99
2023-04-26T01:29:16.678Z,5.13
2023-04-26T01:31:44.971Z,4.86
2023-04-26T01:34:12.823Z,4.98
2023-04-26T01:36:41.044Z,5.02
2023-04-26T01:39:09.324Z,5.23
2023-04-26T01:41:38.665Z,5.21
2023-04-26T01:44:06.755Z,5.25
2023-04-26T01:46:34.715Z,4.80
2023-04-26T01:49:02.564Z,4.77
2023-04-26T01:51:31.296Z,4.77
2023-04-26T01:53:59.935Z,4.82
2023-04-26T01:56:27.707Z,4.79
2023-04-26T01:58:57.459Z,4.72
2023-04-26T02:01:25.513Z,4.47
2023-04-26T02:03:53.468Z,4.20
2023-04-26T02:06:21.591Z,4.22
2023-04-26T02:08:49.625Z,4.12
2023-04-26T02:11:17.635Z,4.47
2023-04-26T02:13:45.472Z,4.66
2023-04-26T02:16:16.225Z,4.57
2023-04-26T02:18:44.376Z,4.59
2023-04-26T02:21:12.946Z,4.72
2023-04-26T02:23:40.740Z,4.60
2023-04-26T02:26:11.689Z,4.79
2023-04-26T02:28:39.696Z,4.84
2023-04-26T02:31:07.662Z,5.05
2023-04-26T02:33:36.906Z,4.75
2023-04-26T02:36:06.040Z,4.72
2023-04-26T02:38:36.264Z,4.74
2023-04-26T02:41:05.983Z,4.84
2023-04-26T02:43:34.506Z,5.00
2023-04-26T02:46:02.458Z,4.94
2023-04-26T02:48:31.939Z,5.09
2023-04-26T02:51:01.166Z,4.76
2023-04-26T02:53:29.046Z,4.85
2023-04-26T02:55:56.819Z,4.77
2023-04-26T02:58:24.603Z,5.03
2023-04-26T03:00:54.441Z,4.97
2023-04-26T03:03:23.056Z,4.61
2023-04-26T03:05:51.400Z,4.56
2023-04-26T03:08:20.816Z,4.63
2023-04-26T03:10:48.666Z,4.64
2023-04-26T03:13:16.479Z,4.85
2023-04-26T03:15:45.935Z,4.59
2023-04-26T03:18:13.786Z,4.55
2023-04-26T03:20:42.892Z,4.48
2023-04-26T03:23:13.948Z,4.35
2023-04-26T03:25:43.098Z,4.54
2023-04-26T03:28:10.996Z,4.39
2023-04-26T03:30:39.028Z,4.67
2023-04-26T03:33:07.077Z,4.73
2023-04-26T03:35:34.924Z,4.45
2023-04-26T03:38:02.748Z,4.43
2023-04-26T03:40:30.553Z,4.88
2023-04-26T03:42:59.890Z,5.04
2023-04-26T03:45:27.807Z,5.23
2023-04-26T03:47:56.721Z,5.09
2023-04-26T03:50:24.772Z,5.02
2023-04-26T03:52:52.959Z,5.13
2023-04-26T03:55:21.238Z,5.09
2023-04-26T03:57:49.218Z,5.01
2023-04-26T04:00:18.625Z,4.98
2023-04-26T04:02:47.961Z,5.15
2023-04-26T04:05:24.099Z,5.16
2023-04-26T04:07:52.115Z,5.24
2023-04-26T04:10:22.883Z,5.05
2023-04-26T04:12:51.259Z,5.03
2023-04-26T04:15:21.151Z,5.14
2023-04-26T04:17:49.945Z,5.32
2023-04-26T04:20:17.988Z,5.26
2023-04-26T04:22:46.071Z,5.31
2023-04-26T04:25:14.143Z,5.23
2023-04-26T04:27:43.974Z,5.31
2023-04-26T04:30:12.910Z,5.26
2023-04-26T04:32:45.048Z,5.40
2023-04-26T04:35:14.454Z,5.41
2023-04-26T04:37:44.048Z,5.36
2023-04-26T04:40:13.374Z,5.53
2023-04-26T04:42:44.552Z,5.38
2023-04-26T04:45:12.660Z,5.18
2023-04-26T04:47:42.217Z,5.18
2023-04-26T04:50:10.195Z,5.28
2023-04-26T04:52:38.603Z,5.33
2023-04-26T04:55:07.189Z,5.23
2023-04-26T04:57:37.019Z,5.28
2023-04-26T05:00:10.429Z,5.46
2023-04-26T05:02:45.994Z,5.61
2023-04-26T05:05:14.055Z,5.57
2023-04-26T05:07:41.931Z,5.54
2023-04-26T05:10:10.364Z,5.72
2023-04-26T05:12:38.285Z,5.34
2023-04-26T05:15:07.163Z,5.02
2023-04-26T05:17:35.174Z,4.78
2023-04-26T05:20:14.891Z,5.19
2023-04-26T05:22:42.918Z,5.09
2023-04-26T05:25:11.595Z,5.35
2023-04-26T05:27:40.454Z,5.45
2023-04-26T05:30:16.604Z,5.24
2023-04-26T05:33:04.937Z,5.13
2023-04-26T05:35:42.849Z,5.48
2023-04-26T05:38:10.680Z,5.40
2023-04-26T05:40:38.591Z,5.42
2023-04-26T05:43:06.907Z,5.28
2023-04-26T05:45:36.561Z,5.20
2023-04-26T05:48:04.813Z,5.40
2023-04-26T05:50:33.000Z,5.26
2023-04-26T05:53:02.429Z,5.61
2023-04-26T05:55:30.611Z,5.75
2023-04-26T05:57:58.713Z,5.87
2023-04-26T06:00:26.917Z,5.93
2023-04-26T06:02:54.941Z,6.00
2023-04-26T06:05:23.244Z,5.95
2023-04-26T06:07:51.846Z,5.60
2023-04-26T06:10:21.141Z,5.73
2023-04-26T06:12:48.958Z,5.82
2023-04-26T06:15:18.129Z,5.83
2023-04-26T06:17:46.228Z,5.78
2023-04-26T06:20:14.107Z,6.06
2023-04-26T06:22:42.081Z,5.94
2023-04-26T06:25:10.492Z,5.90
2023-04-26T06:27:41.045Z,5.70
2023-04-26T06:30:11.415Z,5.82
2023-04-26T06:32:42.996Z,5.91
2023-04-26T06:35:11.382Z,6.03
2023-04-26T06:37:39.882Z,6.19
2023-04-26T06:40:11.044Z,6.20
2023-04-26T06:42:38.939Z,6.23
2023-04-26T06:45:23.295Z,6.47
2023-04-26T06:47:53.161Z,6.42
2023-04-26T06:50:24.786Z,6.76
2023-04-26T06:52:52.628Z,6.70
2023-04-26T06:55:20.650Z,6.90
2023-04-26T06:57:48.453Z,7.18
2023-04-26T07:00:17.953Z,7.43
2023-04-26T07:02:47.359Z,7.43
2023-04-26T07:05:16.001Z,7.75
2023-04-26T07:07:43.952Z,7.69
2023-04-26T07:10:12.129Z,7.74
2023-04-26T07:12:40.109Z,8.02
2023-04-26T07:15:09.602Z,7.92
2023-04-26T07:17:37.425Z,8.08
2023-04-26T07:20:08.380Z,8.14
2023-04-26T07:22:36.197Z,7.60
2023-04-26T07:25:05.351Z,7.65
2023-04-26T07:27:33.348Z,7.96
2023-04-26T07:30:01.143Z,8.30
2023-04-26T07:32:29.250Z,8.86
2023-04-26T07:34:57.235Z,9.55
2023-04-26T07:37:26.428Z,9.97
2023-04-26T07:39:54.211Z,9.08
2023-04-26T07:42:22.021Z,9.27
2023-04-26T07:44:49.925Z,9.35
2023-04-26T07:47:17.740Z,8.95
2023-04-26T07:49:47.618Z,8.09
2023-04-26T07:52:15.749Z,9.00
2023-04-26T07:54:46.802Z,9.40
2023-04-26T07:57:14.715Z,9.32
2023-04-26T07:59:42.507Z,9.71
2023-04-26T08:02:11.056Z,9.76
2023-04-26T08:04:39.302Z,9.96
2023-04-26T08:07:07.278Z,10.06
2023-04-26T08:09:35.034Z,9.99
2023-04-26T08:12:05.793Z,10.43
2023-04-26T08:14:35.564Z,10.83
2023-04-26T08:17:03.615Z,9.95
2023-04-26T08:19:33.376Z,10.05
2023-04-26T08:22:01.332Z,10.09
2023-04-26T08:24:29.177Z,9.81
2023-04-26T08:26:58.499Z,9.86
2023-04-26T08:29:27.939Z,10.41
2023-04-26T08:31:55.786Z,10.87
2023-04-26T08:34:23.624Z,10.49
2023-04-26T08:36:51.475Z,10.20
2023-04-26T08:39:19.277Z,9.70
2023-04-26T08:41:51.534Z,9.97
2023-04-26T08:44:24.296Z,10.10
2023-04-26T08:47:01.619Z,10.64
2023-04-26T08:49:40.109Z,10.39
2023-04-26T08:52:11.990Z,11.05
2023-04-26T08:54:40.841Z,11.28
2023-04-26T08:57:09.033Z,11.13
2023-04-26T08:59:38.066Z,10.46
2023-04-26T09:02:08.425Z,10.32
2023-04-26T09:04:37.192Z,10.03
2023-04-26T09:07:05.937Z,9.27
2023-04-26T09:09:37.782Z,9.26
2023-04-26T09:12:05.819Z,9.52
2023-04-26T09:14:33.698Z,8.96
2023-04-26T09:17:01.953Z,9.16
2023-04-26T09:19:37.998Z,9.19
2023-04-26T09:22:06.284Z,9.13
2023-04-26T09:24:50.587Z,9.02
2023-04-26T09:27:18.520Z,9.11
2023-04-26T09:30:00.580Z,9.48
2023-04-26T09:32:29.214Z,9.21
2023-04-26T09:34:58.478Z,9.18
2023-04-26T09:37:26.284Z,9.37
2023-04-26T09:39:54.167Z,9.19
2023-04-26T09:42:22.121Z,9.15
2023-04-26T09:44:50.040Z,9.01
2023-04-26T09:47:17.803Z,9.05
2023-04-26T09:49:50.250Z,8.86
2023-04-26T09:52:20.186Z,8.49
2023-04-26T09:54:50.111Z,7.82
2023-04-26T09:57:19.603Z,7.93
2023-04-26T09:59:48.854Z,7.79
2023-04-26T10:02:22.775Z,7.68
2023-04-26T10:04:52.508Z,8.13
2023-04-26T10:07:23.566Z,8.23
2023-04-26T10:09:52.338Z,8.50
2023-04-26T10:12:21.142Z,8.63
2023-04-26T10:14:49.459Z,8.74
2023-04-26T10:17:19.754Z,9.31
2023-04-26T10:19:51.443Z,9.22
2023-04-26T10:22:23.205Z,9.67
2023-04-26T10:24:51.687Z,9.78
2023-04-26T10:27:54.601Z,9.75
2023-04-26T10:30:24.227Z,10.05
2023-04-26T10:33:16.490Z,9.90
2023-04-26T10:36:06.340Z,10.73
2023-04-26T10:38:36.470Z,10.51
2023-04-26T10:41:30.332Z,10.93
2023-04-26T10:43:59.772Z,11.02
2023-04-26T10:46:41.118Z,10.86
2023-04-26T10:49:19.353Z,11.46
2023-04-26T10:52:09.783Z,11.38
2023-04-26T10:54:53.395Z,11.22
2023-04-26T10:57:22.602Z,11.21
2023-04-26T11:00:27.111Z,10.85
2023-04-26T11:03:03.506Z,10.93
2023-04-26T11:06:01.460Z,10.98
2023-04-26T11:08:32.071Z,10.75
2023-04-26T11:11:13.415Z,10.74
2023-04-26T11:13:45.246Z,11.44
2023-04-26T11:16:14.550Z,11.85
2023-04-26T11:18:51.232Z,12.56
2023-04-26T11:21:22.536Z,12.12
2023-04-26T11:23:56.521Z,11.13
2023-04-26T11:26:33.980Z,11.12
2023-04-26T11:29:03.358Z,11.88
2023-04-26T11:31:31.829Z,12.24
2023-04-26T11:34:05.036Z,11.33
2023-04-26T11:36:32.866Z,11.68
2023-04-26T11:39:02.587Z,11.28
2023-04-26T11:41:31.952Z,11.16
2023-04-26T11:44:00.536Z,11.34
2023-04-26T11:46:28.590Z,11.65
2023-04-26T11:48:57.161Z,12.10
2023-04-26T11:51:25.249Z,11.99
2023-04-26T11:53:54.584Z,11.69
2023-04-26T11:56:23.092Z,11.00
2023-04-26T11:58:53.631Z,10.76
2023-04-26T12:01:23.390Z,11.26
2023-04-26T12:03:52.496Z,11.11
2023-04-26T12:06:21.002Z,11.39
2023-04-26T12:08:52.530Z,11.48
2023-04-26T12:11:21.260Z,12.16
2023-04-26T12:13:49.171Z,12.83
2023-04-26T12:16:26.107Z,13.04
2023-04-26T12:18:55.282Z,12.44
2023-04-26T12:21:24.340Z,13.31
2023-04-26T12:23:52.258Z,12.89
2023-04-26T12:26:20.458Z,12.76
2023-04-26T12:28:48.405Z,12.38
2023-04-26T12:31:16.239Z,12.52
2023-04-26T12:33:45.408Z,12.34
2023-04-26T12:36:14.007Z,11.82
2023-04-26T12:38:41.829Z,12.11
2023-04-26T12:41:09.554Z,11.66
2023-04-26T12:43:37.373Z,11.75
2023-04-26T12:46:05.598Z,11.65
2023-04-26T12:48:33.472Z,12.04
2023-04-26T12:51:03.216Z,12.65
2023-04-26T12:53:30.973Z,12.54
2023-04-26T12:55:58.903Z,12.35
2023-04-26T12:58:26.843Z,12.07
2023-04-26T13:00:54.592Z,11.71
2023-04-26T13:03:22.551Z,11.70
2023-04-26T13:05:50.761Z,11.84
2023-04-26T13:08:19.919Z,12.30
2023-04-26T13:10:47.716Z,12.90
2023-04-26T13:13:15.515Z,14.22
2023-04-26T13:15:43.358Z,14.58
2023-04-26T13:18:11.299Z,14.08
2023-04-26T13:20:39.156Z,13.08
2023-04-26T13:23:06.980Z,12.98
2023-04-26T13:25:36.179Z,13.10
2023-04-26T13:28:03.959Z,12.94
2023-04-26T13:30:32.168Z,12.70
2023-04-26T13:33:00.609Z,12.91
2023-04-26T13:35:28.469Z,13.11
2023-04-26T13:37:56.426Z,13.54
2023-04-26T13:40:24.245Z,13.23
2023-04-26T13:42:55.667Z,12.82
2023-04-26T13:45:23.399Z,12.32
2023-04-26T13:47:51.315Z,12.73
2023-04-26T13:50:19.672Z,12.89
2023-04-26T13:52:49.576Z,12.98
2023-04-26T13:55:17.506Z,13.89
2023-04-26T13:57:45.645Z,14.55
2023-04-26T14:00:16.465Z,14.59
2023-04-26T14:02:44.411Z,15.05
2023-04-26T14:05:13.091Z,14.06
2023-04-26T14:07:41.741Z,13.26
2023-04-26T14:10:10.448Z,13.15
2023-04-26T14:12:38.275Z,12.59
2023-04-26T14:15:07.415Z,12.95
2023-04-26T14:17:37.136Z,13.43
2023-04-26T14:20:06.686Z,13.80
2023-04-26T14:22:34.494Z,13.46
2023-04-26T14:25:02.359Z,13.69
2023-04-26T14:27:30.122Z,13.36
2023-04-26T14:29:57.950Z,13.25
2023-04-26T14:32:25.869Z,12.83
2023-04-26T14:34:55.070Z,13.23
2023-04-26T14:37:23.983Z,13.94
2023-04-26T14:39:51.917Z,13.55
2023-04-26T14:42:19.778Z,12.94
2023-04-26T14:44:47.727Z,12.94
2023-04-26T14:47:15.516Z,12.72
2023-04-26T14:49:43.279Z,12.65
2023-04-26T14:52:16.339Z,12.59
2023-04-26T14:54:44.387Z,13.07
2023-04-26T14:57:13.133Z,13.25
2023-04-26T14:59:41.869Z,13.34
2023-04-26T15:02:09.779Z,12.97
2023-04-26T15:04:38.112Z,12.87
2023-04-26T15:07:06.523Z,13.18
2023-04-26T15:09:35.646Z,12.81
2023-04-26T15:12:04.741Z,12.76
2023-04-26T15:14:32.554Z,13.65
2023-04-26T15:17:00.618Z,14.32
2023-04-26T15:19:28.560Z,14.22
2023-04-26T15:21:56.345Z,14.00
2023-04-26T15:24:24.229Z,13.54
2023-04-26T15:26:53.609Z,13.53
2023-04-26T15:29:21.378Z,14.13
2023-04-26T15:31:49.205Z,14.36
2023-04-26T15:34:17.206Z,14.27
2023-04-26T15:36:44.965Z,13.41
2023-04-26T15:39:13.012Z,13.10
2023-04-26T15:41:40.864Z,12.74
2023-04-26T15:44:10.221Z,12.98
2023-04-26T15:46:38.263Z,12.92
2023-04-26T15:49:06.346Z,12.76
2023-04-26T15:51:34.305Z,12.60
2023-04-26T15:54:02.210Z,12.42
2023-04-26T15:56:30.144Z,12.54
2023-04-26T15:58:58.349Z,12.57
2023-04-26T16:01:29.577Z,12.30
2023-04-26T16:03:57.670Z,12.01
2023-04-26T16:06:25.790Z,11.82
2023-04-26T16:08:53.772Z,11.97
2023-04-26T16:11:21.940Z,12.02
2023-04-26T16:13:52.034Z,12.21
2023-04-26T16:16:20.397Z,12.27
2023-04-26T16:18:49.850Z,12.15
2023-04-26T16:21:18.055Z,12.08
2023-04-26T16:23:46.331Z,12.07
2023-04-26T16:26:14.159Z,12.16
2023-04-26T16:28:42.113Z,12.30
2023-04-26T16:31:10.326Z,12.18
2023-04-26T16:33:38.203Z,12.17
2023-04-26T16:36:09.282Z,11.96
2023-04-26T16:38:37.135Z,11.94
2023-04-26T16:41:05.255Z,11.95
2023-04-26T16:43:33.167Z,11.76
2023-04-26T16:46:02.346Z,11.83
2023-04-26T16:48:32.094Z,11.79
2023-04-26T16:51:00.712Z,11.63
2023-04-26T16:53:30.184Z,11.63
2023-04-26T16:55:58.562Z,11.62
2023-04-26T16:58:27.151Z,11.59
2023-04-26T17:00:55.158Z,11.60
2023-04-26T17:03:24.064Z,11.77
2023-04-26T17:05:52.382Z,11.86
2023-04-26T17:08:20.799Z,11.79
2023-04-26T17:10:50.249Z,11.71
2023-04-26T17:13:18.360Z,11.66
2023-04-26T17:15:46.511Z,11.66
2023-04-26T17:18:14.330Z,11.53
2023-04-26T17:20:42.275Z,11.64
2023-04-26T17:23:10.158Z,11.62
2023-04-26T17:25:37.950Z,11.66
2023-04-26T17:28:07.202Z,11.56
2023-04-26T17:30:35.035Z,11.40
2023-04-26T17:33:03.027Z,11.42
2023-04-26T17:35:31.018Z,11.38
2023-04-26T17:37:58.854Z,11.28
2023-04-26T17:40:26.708Z,11.23
2023-04-26T17:42:54.551Z,11.26
2023-04-26T17:45:24.120Z,11.08
2023-04-26T17:47:52.036Z,11.00
2023-04-26T17:50:21.074Z,11.04
2023-04-26T17:52:49.056Z,10.87
2023-04-26T17:55:17.043Z,10.77
2023-04-26T17:57:44.937Z,10.69
2023-04-26T18:00:13.933Z,10.70
2023-04-26T18:02:44.362Z,10.51
2023-04-26T18:05:13.352Z,10.39
2023-04-26T18:07:41.241Z,10.39
2023-04-26T18:10:10.089Z,10.28
2023-04-26T18:12:38.074Z,10.40
2023-04-26T18:15:06.964Z,10.31
2023-04-26T18:17:34.816Z,10.22
2023-04-26T18:20:04.651Z,10.06
2023-04-26T18:22:32.493Z,10.16
2023-04-26T18:25:00.448Z,10.00
2023-04-26T18:27:28.263Z,10.41
2023-04-26T18:29:56.116Z,10.40
2023-04-26T18:32:23.985Z,10.08
2023-04-26T18:34:52.218Z,9.83
2023-04-26T18:37:21.483Z,9.73
2023-04-26T18:39:49.748Z,9.70
2023-04-26T18:42:17.546Z,9.56
2023-04-26T18:44:45.537Z,9.54
2023-04-26T18:47:13.336Z,9.42
2023-04-26T18:49:41.133Z,9.39
2023-04-26T18:52:09.908Z,9.40
2023-04-26T18:54:39.416Z,9.43
2023-04-26T18:57:07.275Z,9.33
2023-04-26T18:59:35.057Z,9.47
2023-04-26T19:02:04.356Z,9.43
2023-04-26T19:04:32.612Z,9.28
2023-04-26T19:07:01.115Z,9.07
2023-04-26T19:09:29.927Z,9.01
2023-04-26T19:12:00.473Z,9.17
2023-04-26T19:14:28.277Z,9.20
2023-04-26T19:16:56.348Z,9.07
2023-04-26T19:19:24.785Z,8.86
2023-04-26T19:21:54.819Z,8.78
2023-04-26T19:24:22.865Z,8.74
2023-04-26T19:26:50.683Z,8.58
2023-04-26T19:29:20.233Z,8.47
2023-04-26T19:31:48.100Z,8.30
2023-04-26T19:34:16.009Z,8.28
2023-04-26T19:36:44.083Z,8.15
2023-04-26T19:39:12.128Z,8.01
2023-04-26T19:41:39.910Z,7.92
2023-04-26T19:44:07.711Z,7.91
2023-04-26T19:46:37.847Z,7.93
2023-04-26T19:49:05.853Z,7.80
2023-04-26T19:51:33.901Z,7.82
2023-04-26T19:54:01.829Z,7.73
2023-04-26T19:56:29.641Z,7.72
2023-04-26T19:58:57.548Z,7.87
2023-04-26T20:01:25.381Z,7.88
2023-04-26T20:03:55.899Z,7.79
2023-04-26T20:06:23.805Z,7.69
2023-04-26T20:08:51.574Z,7.64
2023-04-26T20:11:19.386Z,7.67
2023-04-26T20:13:48.435Z,7.68
2023-04-26T20:16:16.376Z,7.78
2023-04-26T20:18:44.463Z,7.84
2023-04-26T20:21:13.615Z,7.92
2023-04-26T20:23:41.535Z,7.91
2023-04-26T20:26:12.422Z,8.29
2023-04-26T20:28:40.286Z,8.32
2023-04-26T20:31:08.211Z,8.17
2023-04-26T20:33:36.679Z,8.08
2023-04-26T20:36:04.686Z,7.88
2023-04-26T20:38:33.923Z,7.72
2023-04-26T20:41:01.835Z,7.50
2023-04-26T20:43:29.745Z,7.37
2023-04-26T20:45:57.622Z,7.09
2023-04-26T20:48:25.605Z,6.94
2023-04-26T20:50:55.199Z,6.79
2023-04-26T20:53:23.077Z,6.95
2023-04-26T20:55:53.993Z,7.08
2023-04-26T20:58:21.862Z,7.24
2023-04-26T21:00:50.680Z,7.31
2023-04-26T21:03:18.765Z,7.30
2023-04-26T21:05:46.872Z,7.29
2023-04-26T21:08:15.092Z,7.39
2023-04-26T21:10:42.873Z,7.44
2023-04-26T21:13:12.074Z,7.44
2023-04-26T21:15:42.129Z,7.32
2023-04-26T21:18:09.913Z,7.19
2023-04-26T21:20:37.759Z,7.05
2023-04-26T21:23:05.630Z,7.06
2023-04-26T21:25:34.657Z,7.19
2023-04-26T21:28:02.522Z,7.25
2023-04-26T21:30:31.868Z,7.26
2023-04-26T21:32:59.857Z,7.29
2023-04-26T21:35:27.772Z,7.23
2023-04-26T21:37:55.688Z,7.31
2023-04-26T21:40:23.496Z,7.33
2023-04-26T21:43:03.917Z,7.28
2023-04-26T21:45:34.294Z,7.26
2023-04-26T21:48:02.836Z,7.20
2023-04-26T21:50:30.821Z,7.08
2023-04-26T21:52:58.729Z,7.06
2023-04-26T21:55:26.916Z,6.98
2023-04-26T21:57:54.939Z,6.79
2023-04-26T22:00:23.241Z,6.70
2023-04-26T22:02:52.573Z,6.62
2023-04-26T22:05:20.987Z,6.60
2023-04-26T22:07:49.071Z,6.54
2023-04-26T22:10:17.093Z,6.48
2023-04-26T22:12:45.030Z,6.41
2023-04-26T22:15:13.178Z,6.42
2023-04-26T22:17:41.125Z,6.49
2023-04-26T22:20:11.979Z,6.51
2023-04-26T22:22:40.783Z,6.54
2023-04-26T22:25:09.359Z,6.67
2023-04-26T22:27:37.277Z,6.58
2023-04-26T22:30:23.142Z,6.53
2023-04-26T22:32:54.736Z,6.45
2023-04-26T22:35:24.950Z,6.42
2023-04-26T22:37:52.765Z,6.49
2023-04-26T22:40:20.832Z,6.51
2023-04-26T22:42:48.758Z,6.55
2023-04-26T22:45:16.769Z,6.30
2023-04-26T22:47:44.705Z,6.36
2023-04-26T22:50:12.816Z,6.36
2023-04-26T22:52:42.067Z,6.38
2023-04-26T22:55:10.717Z,6.57
2023-04-26T22:57:38.525Z,9.53
2023-04-26T23:00:09.544Z,10.07
2023-04-26T23:02:37.489Z,8.52
2023-04-26T23:05:08.868Z,7.57
2023-04-26T23:07:36.689Z,7.06
2023-04-26T23:10:08.415Z,6.77
2023-04-26T23:12:37.002Z,6.58
2023-04-26T23:15:06.147Z,6.46
2023-04-26T23:17:34.736Z,6.38
2023-04-26T23:20:02.808Z,6.34
2023-04-26T23:22:30.571Z,6.21
2023-04-26T23:24:58.322Z,6.12
2023-04-26T23:27:27.683Z,6.08
2023-04-26T23:29:56.746Z,6.06
2023-04-26T23:32:24.693Z,6.06
2023-04-26T23:34:52.513Z,6.08
2023-04-26T23:37:20.312Z,6.12
2023-04-26T23:39:48.082Z,6.18
2023-04-26T23:42:15.876Z,6.19
2023-04-26T23:44:44.971Z,6.15
2023-04-26T23:47:12.725Z,6.13
2023-04-26T23:49:40.585Z,5.96
2023-04-26T23:52:08.362Z,5.78
2023-04-26T23:54:36.123Z,5.68
2023-04-26T23:57:04.620Z,5.58
2023-04-26T23:59:32.418Z,5.59
